sensor_id;sensor_type;location;lat;lon;timestamp;pressure;altitude;pressure_sealevel;temperature;humidity
75089;BME280;63673;49.928;8.150;2024-01-11T00:00:12;1002.98;;;-5.41;100
75089;BME280;63673;49.928;8.150;2024-01-11T00:01:14;1003.02;;;-5.41;100
75089;BME280;63673;49.928;8.150;2024-01-11T00:02:16;1002.99;;;-5.41;100
75089;BME280;63673;49.928;8.150;2024-01-11T00:03:17;1003.02;;;-5.41;100
75089;BME280;63673;49.928;8.150;2024-01-11T00:04:19;1003.03;;;-5.42;100
75089;BME280;63673;49.928;8.150;2024-01-11T00:05:21;1003.06;;;-5.41;100
75089;BME280;63673;49.928;8.150;2024-01-11T00:06:23;1003.03;;;-5.41;100
75089;BME280;63673;49.928;8.150;2024-01-11T00:07:24;1003.03;;;-5.41;100
75089;BME280;63673;49.928;8.150;2024-01-11T00:08:26;1003.08;;;-5.41;100
75089;BME280;63673;49.928;8.150;2024-01-11T00:09:28;1003.03;;;-5.41;100
75089;BME280;63673;49.928;8.150;2024-01-11T00:10:30;1003.05;;;-5.4;100
75089;BME280;63673;49.928;8.150;2024-01-11T00:11:31;1003.1;;;-5.4;100
75089;BME280;63673;49.928;8.150;2024-01-11T00:12:33;1003.07;;;-5.4;100
75089;BME280;63673;49.928;8.150;2024-01-11T00:13:35;1003.06;;;-5.4;100
75089;BME280;63673;49.928;8.150;2024-01-11T00:14:37;1003.07;;;-5.4;100
75089;BME280;63673;49.928;8.150;2024-01-11T00:15:38;1003.08;;;-5.4;100
75089;BME280;63673;49.928;8.150;2024-01-11T00:16:40;1003.06;;;-5.39;100
75089;BME280;63673;49.928;8.150;2024-01-11T00:17:42;1003.09;;;-5.39;100
75089;BME280;63673;49.928;8.150;2024-01-11T00:18:43;1003.07;;;-5.39;100
75089;BME280;63673;49.928;8.150;2024-01-11T00:19:45;1003.14;;;-5.38;100
75089;BME280;63673;49.928;8.150;2024-01-11T00:20:47;1003.08;;;-5.38;100
75089;BME280;63673;49.928;8.150;2024-01-11T00:21:49;1003.07;;;-5.37;100
75089;BME280;63673;49.928;8.150;2024-01-11T00:22:50;1003.06;;;-5.37;100
75089;BME280;63673;49.928;8.150;2024-01-11T00:23:52;1003.06;;;-5.37;100
75089;BME280;63673;49.928;8.150;2024-01-11T00:24:54;1003.05;;;-5.37;100
75089;BME280;63673;49.928;8.150;2024-01-11T00:25:55;1003.08;;;-5.36;100
75089;BME280;63673;49.928;8.150;2024-01-11T00:26:57;1003.05;;;-5.36;100
75089;BME280;63673;49.928;8.150;2024-01-11T00:27:59;1003;;;-5.36;100
75089;BME280;63673;49.928;8.150;2024-01-11T00:29:01;1003;;;-5.35;100
75089;BME280;63673;49.928;8.150;2024-01-11T00:30:03;1003.06;;;-5.35;100
75089;BME280;63673;49.928;8.150;2024-01-11T00:31:04;1003.07;;;-5.35;100
75089;BME280;63673;49.928;8.150;2024-01-11T00:32:06;1003.07;;;-5.35;100
75089;BME280;63673;49.928;8.150;2024-01-11T00:33:08;1003.13;;;-5.34;100
75089;BME280;63673;49.928;8.150;2024-01-11T00:34:09;1003.09;;;-5.35;100
75089;BME280;63673;49.928;8.150;2024-01-11T00:35:11;1003.15;;;-5.34;100
75089;BME280;63673;49.928;8.150;2024-01-11T00:36:17;1003.13;;;-5.35;100
75089;BME280;63673;49.928;8.150;2024-01-11T00:37:14;1003.07;;;-5.35;100
75089;BME280;63673;49.928;8.150;2024-01-11T00:38:16;1003.11;;;-5.35;100
75089;BME280;63673;49.928;8.150;2024-01-11T00:39:18;1003.12;;;-5.35;100
75089;BME280;63673;49.928;8.150;2024-01-11T00:40:20;1003.18;;;-5.36;100
75089;BME280;63673;49.928;8.150;2024-01-11T00:41:21;1003.18;;;-5.36;100
75089;BME280;63673;49.928;8.150;2024-01-11T00:42:23;1003.19;;;-5.36;100
75089;BME280;63673;49.928;8.150;2024-01-11T00:43:25;1003.17;;;-5.36;100
75089;BME280;63673;49.928;8.150;2024-01-11T00:44:26;1003.22;;;-5.36;100
75089;BME280;63673;49.928;8.150;2024-01-11T00:45:28;1003.2;;;-5.36;100
75089;BME280;63673;49.928;8.150;2024-01-11T00:46:30;1003.22;;;-5.36;100
75089;BME280;63673;49.928;8.150;2024-01-11T00:47:32;1003.21;;;-5.37;100
75089;BME280;63673;49.928;8.150;2024-01-11T00:48:33;1003.26;;;-5.36;100
75089;BME280;63673;49.928;8.150;2024-01-11T00:49:35;1003.25;;;-5.37;100
75089;BME280;63673;49.928;8.150;2024-01-11T00:50:37;1003.23;;;-5.37;100
75089;BME280;63673;49.928;8.150;2024-01-11T00:51:39;1003.24;;;-5.37;100
75089;BME280;63673;49.928;8.150;2024-01-11T00:52:40;1003.22;;;-5.37;100
75089;BME280;63673;49.928;8.150;2024-01-11T00:53:42;1003.19;;;-5.38;100
75089;BME280;63673;49.928;8.150;2024-01-11T00:54:44;1003.21;;;-5.39;100
75089;BME280;63673;49.928;8.150;2024-01-11T00:55:45;1003.24;;;-5.39;100
75089;BME280;63673;49.928;8.150;2024-01-11T00:56:47;1003.25;;;-5.4;100
75089;BME280;63673;49.928;8.150;2024-01-11T00:57:49;1003.22;;;-5.42;100
75089;BME280;63673;49.928;8.150;2024-01-11T00:58:51;1003.24;;;-5.44;100
75089;BME280;63673;49.928;8.150;2024-01-11T00:59:52;1003.29;;;-5.45;100
75089;BME280;63673;49.928;8.150;2024-01-11T01:00:54;1003.26;;;-5.47;100
75089;BME280;63673;49.928;8.150;2024-01-11T01:01:56;1003.28;;;-5.48;100
75089;BME280;63673;49.928;8.150;2024-01-11T01:02:58;1003.28;;;-5.49;100
75089;BME280;63673;49.928;8.150;2024-01-11T01:03:59;1003.33;;;-5.51;100
75089;BME280;63673;49.928;8.150;2024-01-11T01:05:01;1003.3;;;-5.52;100
75089;BME280;63673;49.928;8.150;2024-01-11T01:06:03;1003.27;;;-5.53;100
75089;BME280;63673;49.928;8.150;2024-01-11T01:07:04;1003.27;;;-5.54;100
75089;BME280;63673;49.928;8.150;2024-01-11T01:08:06;1003.25;;;-5.55;100
75089;BME280;63673;49.928;8.150;2024-01-11T01:09:08;1003.22;;;-5.56;100
75089;BME280;63673;49.928;8.150;2024-01-11T01:10:10;1003.24;;;-5.56;100
75089;BME280;63673;49.928;8.150;2024-01-11T01:11:11;1003.23;;;-5.57;100
75089;BME280;63673;49.928;8.150;2024-01-11T01:12:13;1003.26;;;-5.57;100
75089;BME280;63673;49.928;8.150;2024-01-11T01:13:16;1003.24;;;-5.59;100
75089;BME280;63673;49.928;8.150;2024-01-11T01:14:17;1003.14;;;-5.59;100
75089;BME280;63673;49.928;8.150;2024-01-11T01:15:18;1003.27;;;-5.6;100
75089;BME280;63673;49.928;8.150;2024-01-11T01:16:20;1003.3;;;-5.61;100
75089;BME280;63673;49.928;8.150;2024-01-11T01:17:22;1003.34;;;-5.62;100
75089;BME280;63673;49.928;8.150;2024-01-11T01:18:23;1003.32;;;-5.63;100
75089;BME280;63673;49.928;8.150;2024-01-11T01:19:25;1003.28;;;-5.65;100
75089;BME280;63673;49.928;8.150;2024-01-11T01:20:27;1003.33;;;-5.66;100
75089;BME280;63673;49.928;8.150;2024-01-11T01:21:29;1003.31;;;-5.67;100
75089;BME280;63673;49.928;8.150;2024-01-11T01:22:30;1003.33;;;-5.68;100
75089;BME280;63673;49.928;8.150;2024-01-11T01:23:32;1003.28;;;-5.7;100
75089;BME280;63673;49.928;8.150;2024-01-11T01:24:34;1003.27;;;-5.71;100
75089;BME280;63673;49.928;8.150;2024-01-11T01:25:35;1003.33;;;-5.72;100
75089;BME280;63673;49.928;8.150;2024-01-11T01:26:37;1003.28;;;-5.74;100
75089;BME280;63673;49.928;8.150;2024-01-11T01:27:39;1003.26;;;-5.75;100
75089;BME280;63673;49.928;8.150;2024-01-11T01:28:41;1003.3;;;-5.76;100
75089;BME280;63673;49.928;8.150;2024-01-11T01:29:42;1003.29;;;-5.77;100
75089;BME280;63673;49.928;8.150;2024-01-11T01:30:44;1003.28;;;-5.77;100
75089;BME280;63673;49.928;8.150;2024-01-11T01:31:46;1003.32;;;-5.77;100
75089;BME280;63673;49.928;8.150;2024-01-11T01:32:48;1003.3;;;-5.78;100
75089;BME280;63673;49.928;8.150;2024-01-11T01:33:49;1003.36;;;-5.78;100
75089;BME280;63673;49.928;8.150;2024-01-11T01:34:51;1003.35;;;-5.78;100
75089;BME280;63673;49.928;8.150;2024-01-11T01:35:53;1003.27;;;-5.79;100
75089;BME280;63673;49.928;8.150;2024-01-11T01:36:54;1003.29;;;-5.81;100
75089;BME280;63673;49.928;8.150;2024-01-11T01:37:56;1003.25;;;-5.82;100
75089;BME280;63673;49.928;8.150;2024-01-11T01:38:58;1003.25;;;-5.83;100
75089;BME280;63673;49.928;8.150;2024-01-11T01:40:00;1003.3;;;-5.84;100
75089;BME280;63673;49.928;8.150;2024-01-11T01:41:01;1003.27;;;-5.87;100
75089;BME280;63673;49.928;8.150;2024-01-11T01:42:03;1003.26;;;-5.89;100
75089;BME280;63673;49.928;8.150;2024-01-11T01:43:06;1003.3;;;-5.9;100
75089;BME280;63673;49.928;8.150;2024-01-11T01:44:07;1003.29;;;-5.92;100
75089;BME280;63673;49.928;8.150;2024-01-11T01:45:08;1003.34;;;-5.94;100
75089;BME280;63673;49.928;8.150;2024-01-11T01:46:10;1003.35;;;-5.95;100
75089;BME280;63673;49.928;8.150;2024-01-11T01:47:12;1003.35;;;-5.97;100
75089;BME280;63673;49.928;8.150;2024-01-11T01:48:13;1003.34;;;-5.99;100
75089;BME280;63673;49.928;8.150;2024-01-11T01:49:15;1003.38;;;-6.01;100
75089;BME280;63673;49.928;8.150;2024-01-11T01:50:17;1003.41;;;-6.03;100
75089;BME280;63673;49.928;8.150;2024-01-11T01:51:19;1003.45;;;-6.05;100
75089;BME280;63673;49.928;8.150;2024-01-11T01:52:20;1003.43;;;-6.07;100
75089;BME280;63673;49.928;8.150;2024-01-11T01:53:22;1003.45;;;-6.09;100
75089;BME280;63673;49.928;8.150;2024-01-11T01:54:24;1003.48;;;-6.1;100
75089;BME280;63673;49.928;8.150;2024-01-11T01:55:26;1003.47;;;-6.12;100
75089;BME280;63673;49.928;8.150;2024-01-11T01:56:27;1003.46;;;-6.14;100
75089;BME280;63673;49.928;8.150;2024-01-11T01:57:29;1003.44;;;-6.15;100
75089;BME280;63673;49.928;8.150;2024-01-11T01:58:31;1003.48;;;-6.18;100
75089;BME280;63673;49.928;8.150;2024-01-11T01:59:32;1003.45;;;-6.18;100
75089;BME280;63673;49.928;8.150;2024-01-11T02:00:34;1003.46;;;-6.21;100
75089;BME280;63673;49.928;8.150;2024-01-11T02:01:36;1003.46;;;-6.22;100
75089;BME280;63673;49.928;8.150;2024-01-11T02:02:38;1003.43;;;-6.24;100
75089;BME280;63673;49.928;8.150;2024-01-11T02:03:39;1003.46;;;-6.26;100
75089;BME280;63673;49.928;8.150;2024-01-11T02:04:42;1003.48;;;-6.27;100
75089;BME280;63673;49.928;8.150;2024-01-11T02:05:43;1003.5;;;-6.29;100
75089;BME280;63673;49.928;8.150;2024-01-11T02:06:44;1003.45;;;-6.3;100
75089;BME280;63673;49.928;8.150;2024-01-11T02:07:46;1003.51;;;-6.32;100
75089;BME280;63673;49.928;8.150;2024-01-11T02:08:48;1003.55;;;-6.34;100
75089;BME280;63673;49.928;8.150;2024-01-11T02:09:50;1003.54;;;-6.35;100
75089;BME280;63673;49.928;8.150;2024-01-11T02:10:51;1003.52;;;-6.36;100
75089;BME280;63673;49.928;8.150;2024-01-11T02:11:53;1003.54;;;-6.39;100
75089;BME280;63673;49.928;8.150;2024-01-11T02:12:55;1003.58;;;-6.4;100
75089;BME280;63673;49.928;8.150;2024-01-11T02:13:58;1003.59;;;-6.41;100
75089;BME280;63673;49.928;8.150;2024-01-11T02:14:58;1003.58;;;-6.43;100
75089;BME280;63673;49.928;8.150;2024-01-11T02:16:00;1003.61;;;-6.44;100
75089;BME280;63673;49.928;8.150;2024-01-11T02:17:02;1003.54;;;-6.43;100
75089;BME280;63673;49.928;8.150;2024-01-11T02:18:04;1003.57;;;-6.45;100
75089;BME280;63673;49.928;8.150;2024-01-11T02:19:05;1003.58;;;-6.45;100
75089;BME280;63673;49.928;8.150;2024-01-11T02:20:07;1003.57;;;-6.44;100
75089;BME280;63673;49.928;8.150;2024-01-11T02:21:09;1003.56;;;-6.46;100
75089;BME280;63673;49.928;8.150;2024-01-11T02:22:12;1003.56;;;-6.45;100
75089;BME280;63673;49.928;8.150;2024-01-11T02:23:14;1003.57;;;-6.46;100
75089;BME280;63673;49.928;8.150;2024-01-11T02:24:14;1003.54;;;-6.46;100
75089;BME280;63673;49.928;8.150;2024-01-11T02:25:16;1003.45;;;-6.44;100
75089;BME280;63673;49.928;8.150;2024-01-11T02:26:17;1003.48;;;-6.46;100
75089;BME280;63673;49.928;8.150;2024-01-11T02:27:19;1003.52;;;-6.45;100
75089;BME280;63673;49.928;8.150;2024-01-11T02:28:21;1003.47;;;-6.45;100
75089;BME280;63673;49.928;8.150;2024-01-11T02:29:23;1003.55;;;-6.46;100
75089;BME280;63673;49.928;8.150;2024-01-11T02:30:24;1003.6;;;-6.45;100
75089;BME280;63673;49.928;8.150;2024-01-11T02:31:26;1003.52;;;-6.46;100
75089;BME280;63673;49.928;8.150;2024-01-11T02:32:28;1003.59;;;-6.45;100
75089;BME280;63673;49.928;8.150;2024-01-11T02:33:29;1003.6;;;-6.47;100
75089;BME280;63673;49.928;8.150;2024-01-11T02:34:31;1003.57;;;-6.46;100
75089;BME280;63673;49.928;8.150;2024-01-11T02:35:33;1003.6;;;-6.46;100
75089;BME280;63673;49.928;8.150;2024-01-11T02:36:35;1003.57;;;-6.45;100
75089;BME280;63673;49.928;8.150;2024-01-11T02:37:36;1003.57;;;-6.47;100
75089;BME280;63673;49.928;8.150;2024-01-11T02:38:38;1003.61;;;-6.46;100
75089;BME280;63673;49.928;8.150;2024-01-11T02:39:40;1003.57;;;-6.47;100
75089;BME280;63673;49.928;8.150;2024-01-11T02:40:42;1003.59;;;-6.49;100
75089;BME280;63673;49.928;8.150;2024-01-11T02:41:43;1003.55;;;-6.49;100
75089;BME280;63673;49.928;8.150;2024-01-11T02:42:45;1003.59;;;-6.49;100
75089;BME280;63673;49.928;8.150;2024-01-11T02:43:47;1003.63;;;-6.51;100
75089;BME280;63673;49.928;8.150;2024-01-11T02:44:49;1003.65;;;-6.53;100
75089;BME280;63673;49.928;8.150;2024-01-11T02:45:53;1003.63;;;-6.53;100
75089;BME280;63673;49.928;8.150;2024-01-11T02:46:52;1003.59;;;-6.52;100
75089;BME280;63673;49.928;8.150;2024-01-11T02:47:54;1003.63;;;-6.54;100
75089;BME280;63673;49.928;8.150;2024-01-11T02:48:55;1003.58;;;-6.54;100
75089;BME280;63673;49.928;8.150;2024-01-11T02:49:57;1003.62;;;-6.54;100
75089;BME280;63673;49.928;8.150;2024-01-11T02:50:59;1003.58;;;-6.55;100
75089;BME280;63673;49.928;8.150;2024-01-11T02:52:01;1003.6;;;-6.56;100
75089;BME280;63673;49.928;8.150;2024-01-11T02:53:03;1003.56;;;-6.55;100
75089;BME280;63673;49.928;8.150;2024-01-11T02:54:04;1003.53;;;-6.56;100
75089;BME280;63673;49.928;8.150;2024-01-11T02:55:06;1003.52;;;-6.59;100
75089;BME280;63673;49.928;8.150;2024-01-11T02:56:08;1003.61;;;-6.58;100
75089;BME280;63673;49.928;8.150;2024-01-11T02:57:10;1003.58;;;-6.59;100
75089;BME280;63673;49.928;8.150;2024-01-11T02:58:11;1003.61;;;-6.59;100
75089;BME280;63673;49.928;8.150;2024-01-11T02:59:13;1003.59;;;-6.59;100
75089;BME280;63673;49.928;8.150;2024-01-11T03:00:15;1003.55;;;-6.59;100
75089;BME280;63673;49.928;8.150;2024-01-11T03:01:16;1003.54;;;-6.6;100
75089;BME280;63673;49.928;8.150;2024-01-11T03:02:18;1003.55;;;-6.61;100
75089;BME280;63673;49.928;8.150;2024-01-11T03:03:20;1003.5;;;-6.62;100
75089;BME280;63673;49.928;8.150;2024-01-11T03:04:21;1003.57;;;-6.62;100
75089;BME280;63673;49.928;8.150;2024-01-11T03:05:23;1003.56;;;-6.62;100
75089;BME280;63673;49.928;8.150;2024-01-11T03:06:25;1003.57;;;-6.63;100
75089;BME280;63673;49.928;8.150;2024-01-11T03:07:27;1003.53;;;-6.63;100
75089;BME280;63673;49.928;8.150;2024-01-11T03:08:28;1003.52;;;-6.63;100
75089;BME280;63673;49.928;8.150;2024-01-11T03:09:30;1003.51;;;-6.64;100
75089;BME280;63673;49.928;8.150;2024-01-11T03:10:32;1003.56;;;-6.63;100
75089;BME280;63673;49.928;8.150;2024-01-11T03:11:34;1003.56;;;-6.64;100
75089;BME280;63673;49.928;8.150;2024-01-11T03:12:35;1003.48;;;-6.64;100
75089;BME280;63673;49.928;8.150;2024-01-11T03:13:37;1003.55;;;-6.64;100
75089;BME280;63673;49.928;8.150;2024-01-11T03:14:39;1003.49;;;-6.63;100
75089;BME280;63673;49.928;8.150;2024-01-11T03:15:41;1003.5;;;-6.63;100
75089;BME280;63673;49.928;8.150;2024-01-11T03:16:42;1003.5;;;-6.65;100
75089;BME280;63673;49.928;8.150;2024-01-11T03:17:44;1003.44;;;-6.64;100
75089;BME280;63673;49.928;8.150;2024-01-11T03:18:46;1003.44;;;-6.65;100
75089;BME280;63673;49.928;8.150;2024-01-11T03:19:47;1003.39;;;-6.67;100
75089;BME280;63673;49.928;8.150;2024-01-11T03:20:49;1003.46;;;-6.67;100
75089;BME280;63673;49.928;8.150;2024-01-11T03:21:51;1003.46;;;-6.69;100
75089;BME280;63673;49.928;8.150;2024-01-11T03:22:53;1003.44;;;-6.7;100
75089;BME280;63673;49.928;8.150;2024-01-11T03:23:54;1003.46;;;-6.71;100
75089;BME280;63673;49.928;8.150;2024-01-11T03:24:56;1003.48;;;-6.72;100
75089;BME280;63673;49.928;8.150;2024-01-11T03:25:58;1003.4;;;-6.72;100
75089;BME280;63673;49.928;8.150;2024-01-11T03:27:00;1003.41;;;-6.74;100
75089;BME280;63673;49.928;8.150;2024-01-11T03:28:01;1003.34;;;-6.76;100
75089;BME280;63673;49.928;8.150;2024-01-11T03:29:03;1003.35;;;-6.76;100
75089;BME280;63673;49.928;8.150;2024-01-11T03:30:05;1003.37;;;-6.77;100
75089;BME280;63673;49.928;8.150;2024-01-11T03:31:07;1003.36;;;-6.77;100
75089;BME280;63673;49.928;8.150;2024-01-11T03:32:08;1003.34;;;-6.78;100
75089;BME280;63673;49.928;8.150;2024-01-11T03:33:10;1003.36;;;-6.79;100
75089;BME280;63673;49.928;8.150;2024-01-11T03:34:12;1003.34;;;-6.81;100
75089;BME280;63673;49.928;8.150;2024-01-11T03:35:13;1003.33;;;-6.82;100
75089;BME280;63673;49.928;8.150;2024-01-11T03:36:15;1003.31;;;-6.83;100
75089;BME280;63673;49.928;8.150;2024-01-11T03:37:17;1003.3;;;-6.84;100
75089;BME280;63673;49.928;8.150;2024-01-11T03:38:19;1003.31;;;-6.84;100
75089;BME280;63673;49.928;8.150;2024-01-11T03:39:21;1003.34;;;-6.85;100
75089;BME280;63673;49.928;8.150;2024-01-11T03:40:22;1003.35;;;-6.86;100
75089;BME280;63673;49.928;8.150;2024-01-11T03:41:24;1003.32;;;-6.87;100
75089;BME280;63673;49.928;8.150;2024-01-11T03:42:26;1003.35;;;-6.89;100
75089;BME280;63673;49.928;8.150;2024-01-11T03:43:27;1003.4;;;-6.89;100
75089;BME280;63673;49.928;8.150;2024-01-11T03:44:30;1003.31;;;-6.91;100
75089;BME280;63673;49.928;8.150;2024-01-11T03:45:31;1003.41;;;-6.92;100
75089;BME280;63673;49.928;8.150;2024-01-11T03:46:33;1003.33;;;-6.93;100
75089;BME280;63673;49.928;8.150;2024-01-11T03:47:34;1003.37;;;-6.95;100
75089;BME280;63673;49.928;8.150;2024-01-11T03:48:36;1003.42;;;-6.95;100
75089;BME280;63673;49.928;8.150;2024-01-11T03:49:38;1003.33;;;-6.96;100
75089;BME280;63673;49.928;8.150;2024-01-11T03:50:39;1003.3;;;-6.96;100
75089;BME280;63673;49.928;8.150;2024-01-11T03:51:41;1003.38;;;-6.99;100
75089;BME280;63673;49.928;8.150;2024-01-11T03:52:43;1003.34;;;-6.98;100
75089;BME280;63673;49.928;8.150;2024-01-11T03:53:45;1003.41;;;-6.98;100
75089;BME280;63673;49.928;8.150;2024-01-11T03:54:46;1003.32;;;-7;100
75089;BME280;63673;49.928;8.150;2024-01-11T03:55:48;1003.37;;;-6.99;100
75089;BME280;63673;49.928;8.150;2024-01-11T03:56:50;1003.35;;;-6.99;100
75089;BME280;63673;49.928;8.150;2024-01-11T03:57:52;1003.37;;;-6.99;100
75089;BME280;63673;49.928;8.150;2024-01-11T03:58:53;1003.36;;;-6.99;100
75089;BME280;63673;49.928;8.150;2024-01-11T03:59:55;1003.25;;;-6.99;100
75089;BME280;63673;49.928;8.150;2024-01-11T04:00:57;1003.3;;;-6.97;100
75089;BME280;63673;49.928;8.150;2024-01-11T04:01:59;1003.32;;;-6.95;100
75089;BME280;63673;49.928;8.150;2024-01-11T04:03:00;1003.31;;;-6.95;100
75089;BME280;63673;49.928;8.150;2024-01-11T04:04:02;1003.26;;;-6.95;100
75089;BME280;63673;49.928;8.150;2024-01-11T04:05:04;1003.19;;;-6.93;100
75089;BME280;63673;49.928;8.150;2024-01-11T04:06:05;1003.27;;;-6.93;100
75089;BME280;63673;49.928;8.150;2024-01-11T04:07:07;1003.27;;;-6.93;100
75089;BME280;63673;49.928;8.150;2024-01-11T04:08:09;1003.25;;;-6.93;100
75089;BME280;63673;49.928;8.150;2024-01-11T04:09:11;1003.29;;;-6.94;100
75089;BME280;63673;49.928;8.150;2024-01-11T04:10:12;1003.32;;;-6.94;100
75089;BME280;63673;49.928;8.150;2024-01-11T04:11:14;1003.32;;;-6.95;100
75089;BME280;63673;49.928;8.150;2024-01-11T04:12:16;1003.33;;;-6.94;100
75089;BME280;63673;49.928;8.150;2024-01-11T04:13:18;1003.31;;;-6.97;100
75089;BME280;63673;49.928;8.150;2024-01-11T04:14:19;1003.34;;;-6.96;100
75089;BME280;63673;49.928;8.150;2024-01-11T04:15:21;1003.35;;;-6.96;100
75089;BME280;63673;49.928;8.150;2024-01-11T04:16:23;1003.38;;;-6.98;100
75089;BME280;63673;49.928;8.150;2024-01-11T04:17:26;1003.44;;;-6.97;100
75089;BME280;63673;49.928;8.150;2024-01-11T04:18:26;1003.45;;;-6.99;100
75089;BME280;63673;49.928;8.150;2024-01-11T04:19:28;1003.45;;;-6.99;100
75089;BME280;63673;49.928;8.150;2024-01-11T04:20:30;1003.41;;;-7;100
75089;BME280;63673;49.928;8.150;2024-01-11T04:21:31;1003.48;;;-6.99;100
75089;BME280;63673;49.928;8.150;2024-01-11T04:22:33;1003.42;;;-6.98;100
75089;BME280;63673;49.928;8.150;2024-01-11T04:23:35;1003.47;;;-6.99;100
75089;BME280;63673;49.928;8.150;2024-01-11T04:24:37;1003.49;;;-6.99;100
75089;BME280;63673;49.928;8.150;2024-01-11T04:25:38;1003.49;;;-7;100
75089;BME280;63673;49.928;8.150;2024-01-11T04:26:40;1003.47;;;-7;100
75089;BME280;63673;49.928;8.150;2024-01-11T04:27:42;1003.48;;;-6.98;100
75089;BME280;63673;49.928;8.150;2024-01-11T04:28:44;1003.46;;;-6.98;100
75089;BME280;63673;49.928;8.150;2024-01-11T04:29:45;1003.47;;;-6.96;100
75089;BME280;63673;49.928;8.150;2024-01-11T04:30:47;1003.41;;;-6.96;100
75089;BME280;63673;49.928;8.150;2024-01-11T04:31:49;1003.44;;;-6.94;100
75089;BME280;63673;49.928;8.150;2024-01-11T04:32:50;1003.34;;;-6.93;100
75089;BME280;63673;49.928;8.150;2024-01-11T04:33:52;1003.36;;;-6.92;100
75089;BME280;63673;49.928;8.150;2024-01-11T04:34:54;1003.39;;;-6.92;100
75089;BME280;63673;49.928;8.150;2024-01-11T04:35:56;1003.4;;;-6.91;100
75089;BME280;63673;49.928;8.150;2024-01-11T04:36:57;1003.37;;;-6.9;100
75089;BME280;63673;49.928;8.150;2024-01-11T04:37:59;1003.45;;;-6.91;100
75089;BME280;63673;49.928;8.150;2024-01-11T04:39:01;1003.44;;;-6.89;100
75089;BME280;63673;49.928;8.150;2024-01-11T04:40:03;1003.48;;;-6.87;100
75089;BME280;63673;49.928;8.150;2024-01-11T04:41:07;1003.45;;;-6.87;100
75089;BME280;63673;49.928;8.150;2024-01-11T04:42:06;1003.51;;;-6.87;100
75089;BME280;63673;49.928;8.150;2024-01-11T04:43:08;1003.47;;;-6.86;100
75089;BME280;63673;49.928;8.150;2024-01-11T04:44:10;1003.52;;;-6.85;100
75089;BME280;63673;49.928;8.150;2024-01-11T04:45:11;1003.52;;;-6.84;100
75089;BME280;63673;49.928;8.150;2024-01-11T04:46:15;1003.53;;;-6.85;100
75089;BME280;63673;49.928;8.150;2024-01-11T04:47:15;1003.5;;;-6.84;100
75089;BME280;63673;49.928;8.150;2024-01-11T04:48:17;1003.57;;;-6.84;100
75089;BME280;63673;49.928;8.150;2024-01-11T04:49:18;1003.55;;;-6.85;100
75089;BME280;63673;49.928;8.150;2024-01-11T04:50:20;1003.55;;;-6.83;100
75089;BME280;63673;49.928;8.150;2024-01-11T04:51:22;1003.49;;;-6.83;100
75089;BME280;63673;49.928;8.150;2024-01-11T04:52:23;1003.51;;;-6.83;100
75089;BME280;63673;49.928;8.150;2024-01-11T04:53:25;1003.5;;;-6.82;100
75089;BME280;63673;49.928;8.150;2024-01-11T04:54:27;1003.5;;;-6.84;100
75089;BME280;63673;49.928;8.150;2024-01-11T04:55:29;1003.48;;;-6.83;100
75089;BME280;63673;49.928;8.150;2024-01-11T04:56:30;1003.45;;;-6.83;100
75089;BME280;63673;49.928;8.150;2024-01-11T04:57:32;1003.44;;;-6.82;100
75089;BME280;63673;49.928;8.150;2024-01-11T04:58:34;1003.45;;;-6.83;100
75089;BME280;63673;49.928;8.150;2024-01-11T04:59:36;1003.37;;;-6.84;100
75089;BME280;63673;49.928;8.150;2024-01-11T05:00:37;1003.36;;;-6.84;100
75089;BME280;63673;49.928;8.150;2024-01-11T05:01:39;1003.43;;;-6.84;100
75089;BME280;63673;49.928;8.150;2024-01-11T05:02:41;1003.45;;;-6.85;100
75089;BME280;63673;49.928;8.150;2024-01-11T05:03:43;1003.43;;;-6.86;100
75089;BME280;63673;49.928;8.150;2024-01-11T05:04:44;1003.36;;;-6.87;100
75089;BME280;63673;49.928;8.150;2024-01-11T05:05:46;1003.47;;;-6.89;100
75089;BME280;63673;49.928;8.150;2024-01-11T05:06:48;1003.46;;;-6.91;100
75089;BME280;63673;49.928;8.150;2024-01-11T05:07:49;1003.46;;;-6.93;100
75089;BME280;63673;49.928;8.150;2024-01-11T05:08:51;1003.5;;;-6.94;100
75089;BME280;63673;49.928;8.150;2024-01-11T05:09:53;1003.53;;;-6.95;100
75089;BME280;63673;49.928;8.150;2024-01-11T05:10:55;1003.58;;;-6.97;100
75089;BME280;63673;49.928;8.150;2024-01-11T05:11:56;1003.52;;;-6.98;100
75089;BME280;63673;49.928;8.150;2024-01-11T05:12:58;1003.59;;;-6.98;100
75089;BME280;63673;49.928;8.150;2024-01-11T05:14:00;1003.61;;;-6.99;100
75089;BME280;63673;49.928;8.150;2024-01-11T05:15:02;1003.59;;;-7.01;100
75089;BME280;63673;49.928;8.150;2024-01-11T05:16:03;1003.59;;;-7.01;100
75089;BME280;63673;49.928;8.150;2024-01-11T05:17:05;1003.67;;;-7.02;100
75089;BME280;63673;49.928;8.150;2024-01-11T05:18:07;1003.67;;;-7.03;100
75089;BME280;63673;49.928;8.150;2024-01-11T05:19:09;1003.66;;;-7.05;100
75089;BME280;63673;49.928;8.150;2024-01-11T05:20:10;1003.67;;;-7.04;100
75089;BME280;63673;49.928;8.150;2024-01-11T05:21:12;1003.63;;;-7.04;100
75089;BME280;63673;49.928;8.150;2024-01-11T05:22:14;1003.67;;;-7.05;100
75089;BME280;63673;49.928;8.150;2024-01-11T05:23:15;1003.68;;;-7.06;100
75089;BME280;63673;49.928;8.150;2024-01-11T05:24:17;1003.59;;;-7.07;100
75089;BME280;63673;49.928;8.150;2024-01-11T05:25:19;1003.65;;;-7.08;100
75089;BME280;63673;49.928;8.150;2024-01-11T05:26:21;1003.63;;;-7.08;100
75089;BME280;63673;49.928;8.150;2024-01-11T05:27:22;1003.62;;;-7.09;100
75089;BME280;63673;49.928;8.150;2024-01-11T05:28:24;1003.65;;;-7.1;100
75089;BME280;63673;49.928;8.150;2024-01-11T05:29:26;1003.61;;;-7.11;100
75089;BME280;63673;49.928;8.150;2024-01-11T05:30:28;1003.59;;;-7.11;100
75089;BME280;63673;49.928;8.150;2024-01-11T05:31:29;1003.63;;;-7.12;100
75089;BME280;63673;49.928;8.150;2024-01-11T05:32:31;1003.69;;;-7.14;100
75089;BME280;63673;49.928;8.150;2024-01-11T05:33:33;1003.7;;;-7.13;100
75089;BME280;63673;49.928;8.150;2024-01-11T05:34:34;1003.71;;;-7.13;100
75089;BME280;63673;49.928;8.150;2024-01-11T05:35:36;1003.72;;;-7.15;100
75089;BME280;63673;49.928;8.150;2024-01-11T05:36:38;1003.76;;;-7.16;100
75089;BME280;63673;49.928;8.150;2024-01-11T05:37:40;1003.73;;;-7.18;100
75089;BME280;63673;49.928;8.150;2024-01-11T05:38:41;1003.73;;;-7.17;100
75089;BME280;63673;49.928;8.150;2024-01-11T05:39:43;1003.77;;;-7.18;100
75089;BME280;63673;49.928;8.150;2024-01-11T05:40:45;1003.73;;;-7.18;100